This is the latest recevied weather packets stored in our database for station/object KC8SWY-15. If no packets are shown the sender has not sent any weather packets the latest 10 day(s).
| Time | Temp. | Humidity | Pressure | Rain* | Wind** | Luminosity | Snow |
|---|---|---|---|---|---|---|---|
| 1777945172 | 17.78° C | 76% | 1000.4 hPa | 0 mm | - | - | - |
| 1777944872 | 17.78° C | 76% | 1000.7 hPa | 0 mm | - | - | - |
| 1777944572 | 17.78° C | 75% | 1000.4 hPa | 0 mm | - | - | - |
| 1777944272 | 17.78° C | 76% | 1000 hPa | 0 mm | - | - | - |
| 1777943972 | 17.78° C | 79% | 999.6 hPa | 0 mm | - | - | - |
| 1777943672 | 17.78° C | 80% | 999.4 hPa | 0.25 mm | - | - | - |
| 1777943372 | 17.22° C | 80% | 999 hPa | 0.51 mm | - | - | - |
| 1777943072 | 17.22° C | 80% | 998.8 hPa | 1.02 mm | - | - | - |
| 1777942772 | 17.22° C | 80% | 998.5 hPa | 1.02 mm | - | - | - |
| 1777942472 | 17.22° C | 79% | 998.5 hPa | 1.02 mm | - | - | - |
| 1777942172 | 17.78° C | 79% | 998.3 hPa | 1.02 mm | - | - | - |
| 1777941872 | 17.78° C | 78% | 998.5 hPa | 1.02 mm | - | - | - |
| 1777941572 | 17.78° C | 78% | 998.5 hPa | 1.02 mm | - | - | - |
| 1777941272 | 17.78° C | 78% | 998.5 hPa | 1.02 mm | - | - | - |
| 1777940972 | 17.78° C | 79% | 998.6 hPa | 1.02 mm | - | - | - |
| 1777940672 | 17.78° C | 79% | 998.6 hPa | 1.02 mm | - | - | - |
| 1777940372 | 17.78° C | 76% | 998.9 hPa | 1.02 mm | - | - | - |
| 1777940072 | 18.33° C | 73% | 998.9 hPa | 0.76 mm | - | - | - |
| 1777939772 | 19.44° C | 69% | 999 hPa | 0.51 mm | - | - | - |
| 1777939472 | 20° C | 65% | 999 hPa | 0 mm | - | - | - |
| 1777939172 | 20° C | 64% | 998.9 hPa | 0 mm | - | - | - |
| 1777938872 | 20.56° C | 62% | 998.9 hPa | 0 mm | - | - | - |
| 1777938572 | 21.11° C | 60% | 998.6 hPa | 0 mm | - | - | - |
| 1777938272 | 21.67° C | 57% | 998.6 hPa | 0 mm | - | - | - |
| 1777937972 | 21.67° C | 54% | 998.4 hPa | 0 mm | - | - | - |
* Rain latest hour (hover to see other rain measurements)
** Current wind speed in m/s (hover to see current wind gust speed)